createdAt,value
2019-04-22T00:01:45.677Z,78.37
2019-04-22T00:04:33.851Z,78.87
2019-04-22T00:07:15.968Z,78.17
2019-04-22T00:09:51.507Z,77.14
2019-04-22T00:12:35.872Z,77.03
2019-04-22T00:15:02.179Z,76.93
2019-04-22T00:20:08.739Z,79.23
2019-04-22T00:22:46.222Z,79.27
2019-04-22T00:25:27.932Z,78.30
2019-04-22T00:28:00.856Z,78.42
2019-04-22T00:30:28.130Z,79.23
2019-04-22T00:33:09.006Z,80.00
2019-04-22T00:35:41.840Z,80.65
2019-04-22T00:38:23.470Z,79.17
2019-04-22T00:40:55.868Z,79.29
2019-04-22T00:43:32.487Z,78.15
2019-04-22T00:46:03.995Z,78.04
2019-04-22T00:48:48.688Z,78.30
2019-04-22T00:51:12.352Z,79.20
2019-04-22T00:53:48.867Z,79.58
2019-04-22T00:56:32.834Z,79.08
2019-04-22T00:58:56.575Z,79.05
2019-04-22T01:01:32.121Z,79.79
2019-04-22T01:04:12.488Z,79.09
2019-04-22T01:06:39.410Z,78.60
2019-04-22T01:09:16.905Z,78.55
2019-04-22T01:11:44.945Z,79.11
2019-04-22T01:14:25.908Z,80.31
2019-04-22T01:16:59.658Z,80.27
2019-04-22T01:19:47.155Z,80.11
2019-04-22T01:22:16.340Z,80.32
2019-04-22T01:24:48.607Z,80.65
2019-04-22T01:27:17.402Z,79.67
2019-04-22T01:29:54.307Z,79.98
2019-04-22T01:32:22.708Z,80.12
2019-04-22T01:35:03.539Z,80.12
2019-04-22T01:37:44.448Z,81.00
2019-04-22T01:40:24.029Z,81.96
2019-04-22T01:43:03.798Z,81.16
2019-04-22T01:45:34.664Z,80.62
2019-04-22T01:48:12.434Z,79.69
2019-04-22T01:50:37.068Z,79.21
2019-04-22T01:53:21.572Z,78.57
2019-04-22T01:55:55.434Z,79.47
2019-04-22T01:58:26.243Z,81.21
2019-04-22T02:01:00.180Z,81.82
2019-04-22T02:03:42.950Z,82.25
2019-04-22T02:06:13.681Z,82.22
2019-04-22T02:11:26.537Z,82.09
2019-04-22T02:13:49.803Z,81.57
2019-04-22T02:16:34.619Z,80.51
2019-04-22T02:19:11.701Z,81.64
2019-04-22T02:21:38.218Z,82.72
2019-04-22T02:24:20.073Z,83.26
2019-04-22T02:27:06.250Z,83.39
2019-04-22T02:29:26.391Z,83.85
2019-04-22T02:37:13.387Z,83.22
2019-04-22T02:39:48.834Z,82.77
2019-04-22T02:42:14.131Z,81.87
2019-04-22T03:00:37.681Z,83.86
2019-04-22T03:03:18.676Z,83.70
2019-04-22T03:05:41.084Z,82.36
2019-04-22T03:08:14.906Z,82.00
2019-04-22T03:13:23.473Z,81.27
2019-04-22T03:16:01.066Z,82.50
2019-04-22T03:18:42.117Z,82.93
2019-04-22T03:23:45.602Z,83.53
2019-04-22T03:42:09.871Z,83.48
2019-04-22T03:44:56.049Z,83.39
2019-04-22T03:47:29.988Z,83.18
2019-04-22T04:05:45.496Z,84.66
2019-04-22T04:15:34.254Z,84.79
2019-04-22T04:18:19.197Z,83.37
2019-04-22T04:21:09.102Z,83.30
2019-04-22T04:26:02.342Z,83.49
2019-04-22T04:28:50.318Z,83.98
2019-04-22T04:31:17.729Z,84.53
2019-04-22T04:33:46.556Z,84.60
2019-04-22T04:36:16.506Z,84.51
2019-04-22T04:39:03.022Z,84.58
2019-04-22T04:41:34.324Z,84.25
2019-04-22T04:46:47.441Z,84.30
2019-04-22T04:49:18.731Z,84.01
2019-04-22T04:54:31.696Z,83.71
2019-04-22T04:56:56.001Z,83.10
2019-04-22T05:00:03.791Z,82.30
2019-04-22T05:02:09.907Z,82.00
2019-04-22T05:04:56.786Z,81.51
2019-04-22T05:07:18.687Z,81.47
2019-04-22T05:09:44.759Z,81.11
2019-04-22T05:12:42.298Z,81.93
2019-04-22T05:15:00.917Z,81.81
2019-04-22T05:17:41.248Z,82.08
2019-04-22T05:20:13.064Z,81.16
2019-04-22T05:22:41.287Z,80.83
2019-04-22T05:25:17.912Z,80.28
2019-04-22T05:27:49.206Z,80.12
2019-04-22T05:32:56.651Z,80.14
2019-04-22T05:38:13.357Z,78.74
2019-04-22T05:40:56.568Z,79.17
2019-04-22T05:43:16.321Z,79.56
2019-04-22T05:45:49.478Z,78.39
2019-04-22T05:48:27.716Z,76.88
2019-04-22T05:50:59.439Z,79.82
2019-04-22T05:53:32.450Z,78.08
2019-04-22T05:56:08.315Z,74.49
2019-04-22T05:58:45.275Z,75.00
2019-04-22T06:06:22.649Z,75.21
2019-04-22T06:09:10.480Z,71.50
2019-04-22T06:11:31.837Z,72.61
2019-04-22T06:14:22.994Z,71.01
2019-04-22T06:19:33.218Z,68.74
2019-04-22T06:22:13.107Z,69.05
2019-04-22T06:24:42.377Z,67.02
2019-04-22T06:27:21.633Z,64.94
2019-04-22T06:29:49.499Z,62.47
2019-04-22T06:35:15.080Z,61.14
2019-04-22T06:37:53.415Z,61.05
2019-04-22T06:40:13.447Z,59.73
2019-04-22T06:42:51.980Z,60.09
2019-04-22T06:45:23.430Z,59.46
2019-04-22T06:50:38.524Z,58.99
2019-04-22T06:53:25.225Z,55.34
2019-04-22T06:55:41.454Z,55.58
2019-04-22T06:58:15.261Z,57.24
2019-04-22T07:00:44.436Z,56.26
2019-04-22T07:05:59.631Z,58.29
2019-04-22T07:11:06.178Z,53.50
2019-04-22T07:13:52.158Z,57.42
2019-04-22T07:16:30.010Z,52.80
2019-04-22T07:18:56.759Z,51.75
2019-04-22T07:21:33.505Z,54.17
2019-04-22T07:26:44.966Z,51.67
2019-04-22T07:31:57.043Z,52.67
2019-04-22T07:34:42.712Z,50.03
2019-04-22T07:37:18.211Z,47.78
2019-04-22T07:39:35.470Z,48.74
2019-04-22T07:42:15.357Z,46.05
2019-04-22T07:44:45.162Z,45.96
2019-04-22T07:47:25.750Z,44.21
2019-04-22T07:50:03.107Z,45.32
2019-04-22T07:55:06.326Z,46.00
2019-04-22T07:57:36.646Z,46.08
2019-04-22T08:00:16.010Z,45.96
2019-04-22T08:02:51.694Z,45.54
2019-04-22T08:05:30.382Z,42.85
2019-04-22T08:08:09.544Z,42.38
2019-04-22T08:10:46.800Z,40.81
2019-04-22T08:13:11.708Z,44.49
2019-04-22T08:15:54.183Z,42.83
2019-04-22T08:18:28.972Z,42.32
2019-04-22T08:21:00.129Z,38.72
2019-04-22T08:23:39.459Z,40.17
2019-04-22T08:26:16.771Z,39.65
2019-04-22T08:31:20.452Z,41.95
2019-04-22T08:33:54.607Z,43.20
2019-04-22T08:36:36.392Z,38.89
2019-04-22T08:39:09.049Z,35.97
2019-04-22T08:41:37.437Z,39.33
2019-04-22T08:46:52.139Z,40.94
2019-04-22T08:49:24.559Z,41.20
2019-04-22T08:52:01.447Z,43.69
2019-04-22T08:54:36.039Z,40.55
2019-04-22T08:57:16.051Z,38.01
2019-04-22T08:59:50.254Z,40.68
2019-04-22T09:02:25.756Z,38.59
2019-04-22T09:04:53.875Z,37.61
2019-04-22T09:07:31.552Z,38.17
2019-04-22T09:10:02.000Z,37.40
2019-04-22T09:12:51.813Z,39.05
2019-04-22T09:15:11.268Z,38.99
2019-04-22T09:17:58.678Z,38.15
2019-04-22T09:20:28.133Z,35.95
2019-04-22T09:23:07.256Z,36.88
2019-04-22T09:28:19.547Z,34.10
2019-04-22T09:30:56.631Z,33.35
2019-04-22T09:33:27.194Z,36.25
2019-04-22T09:41:13.918Z,34.96
2019-04-22T09:43:49.052Z,36.40
2019-04-22T09:46:25.074Z,34.76
2019-04-22T09:49:03.389Z,35.70
2019-04-22T09:51:25.363Z,33.28
2019-04-22T09:54:12.494Z,37.91
2019-04-22T09:56:37.494Z,32.99
2019-04-22T09:59:08.767Z,34.82
2019-04-22T10:01:59.454Z,34.48
2019-04-22T10:04:23.444Z,35.54
2019-04-22T10:06:54.729Z,34.65
2019-04-22T10:12:10.180Z,35.42
2019-04-22T10:14:45.647Z,33.11
2019-04-22T10:17:14.187Z,30.93
2019-04-22T10:19:52.980Z,31.52
2019-04-22T10:22:32.469Z,33.46
2019-04-22T10:25:05.128Z,28.73
2019-04-22T10:27:39.858Z,31.95
2019-04-22T10:30:08.768Z,32.31
2019-04-22T10:32:50.876Z,31.69
2019-04-22T10:35:17.095Z,32.60
2019-04-22T10:37:48.110Z,31.15
2019-04-22T10:40:38.772Z,31.01
2019-04-22T10:43:12.163Z,30.99
2019-04-22T10:45:46.121Z,29.90
2019-04-22T10:48:19.037Z,30.10
2019-04-22T10:50:52.691Z,31.70
2019-04-22T10:53:31.139Z,31.29
2019-04-22T10:56:05.210Z,33.83
2019-04-22T10:58:38.525Z,34.18
2019-04-22T11:01:11.670Z,34.31
2019-04-22T11:03:45.608Z,34.39
2019-04-22T11:06:21.193Z,33.95
2019-04-22T11:09:00.002Z,35.33
2019-04-22T11:11:41.161Z,35.93
2019-04-22T11:14:06.973Z,35.49
2019-04-22T11:16:39.588Z,36.47
2019-04-22T11:19:13.834Z,36.39
2019-04-22T11:22:02.639Z,34.88
2019-04-22T11:24:26.657Z,33.87
2019-04-22T11:27:01.147Z,36.48
2019-04-22T11:29:35.336Z,35.62
2019-04-22T11:32:08.596Z,33.34
2019-04-22T11:34:42.880Z,33.01
2019-04-22T11:37:16.609Z,33.36
2019-04-22T11:40:02.100Z,29.91
2019-04-22T11:42:25.847Z,32.84
2019-04-22T11:44:59.353Z,31.32
2019-04-22T11:47:33.174Z,35.70
2019-04-22T11:50:06.424Z,33.00
2019-04-22T11:52:40.715Z,32.85
2019-04-22T11:55:15.094Z,31.25
2019-04-22T11:57:48.006Z,32.49
2019-04-22T12:00:30.566Z,29.28
2019-04-22T12:03:05.227Z,32.81
2019-04-22T12:05:41.960Z,27.90
2019-04-22T12:08:15.512Z,31.50
2019-04-22T12:10:53.248Z,30.12
2019-04-22T12:13:24.080Z,30.67
2019-04-22T12:15:57.235Z,28.82
2019-04-22T12:18:31.247Z,29.76
2019-04-22T12:21:05.425Z,29.78
2019-04-22T12:23:39.151Z,28.68
2019-04-22T12:26:16.227Z,31.61
2019-04-22T12:28:48.863Z,27.86
2019-04-22T12:31:23.768Z,27.12
2019-04-22T12:33:57.322Z,30.85
2019-04-22T12:36:30.775Z,30.67
2019-04-22T12:39:05.191Z,29.13
2019-04-22T12:41:38.398Z,31.39
2019-04-22T12:44:11.733Z,26.72
2019-04-22T12:46:46.018Z,25.62
2019-04-22T12:49:20.348Z,24.16
2019-04-22T12:51:54.786Z,25.75
2019-04-22T12:54:29.074Z,24.90
2019-04-22T12:57:03.817Z,22.68
2019-04-22T12:59:37.353Z,25.67
2019-04-22T13:02:11.202Z,22.45
2019-04-22T13:04:45.897Z,22.41
2019-04-22T13:07:19.922Z,23.14
2019-04-22T13:09:53.206Z,23.10
2019-04-22T13:12:26.672Z,24.33
2019-04-22T13:15:01.106Z,25.33
2019-04-22T13:17:35.727Z,24.07
2019-04-22T13:20:13.007Z,25.38
2019-04-22T13:22:45.075Z,24.92
2019-04-22T13:25:21.626Z,25.07
2019-04-22T13:27:55.290Z,26.89
2019-04-22T13:30:30.503Z,26.98
2019-04-22T13:33:04.972Z,25.10
2019-04-22T13:35:39.359Z,24.85
2019-04-22T13:38:12.992Z,26.46
2019-04-22T13:41:00.648Z,26.03
2019-04-22T13:43:22.821Z,27.05
2019-04-22T13:45:56.378Z,24.71
2019-04-22T13:48:46.882Z,25.88
2019-04-22T13:51:43.251Z,24.39
2019-04-22T13:56:30.333Z,25.42
2019-04-22T13:59:00.642Z,26.88
2019-04-22T14:01:28.234Z,24.12
2019-04-22T14:04:22.865Z,25.77
2019-04-22T14:06:56.688Z,23.62
2019-04-22T14:09:46.526Z,24.80
2019-04-22T14:12:21.259Z,23.85
2019-04-22T14:14:58.392Z,23.45
2019-04-22T14:17:31.644Z,24.20
2019-04-22T14:20:04.924Z,21.33
2019-04-22T14:22:38.851Z,23.80
2019-04-22T14:25:12.682Z,24.64
2019-04-22T14:27:53.737Z,23.49
2019-04-22T14:30:21.037Z,23.53
2019-04-22T14:32:54.155Z,24.86
2019-04-22T14:35:27.396Z,23.84
2019-04-22T14:38:01.405Z,22.97
2019-04-22T14:40:36.434Z,21.93
2019-04-22T14:43:34.449Z,23.91
2019-04-22T14:46:23.378Z,24.29
2019-04-22T14:48:46.310Z,25.60
2019-04-22T14:51:11.529Z,25.67
2019-04-22T14:53:44.815Z,27.81
2019-04-22T14:56:02.299Z,26.35
2019-04-22T14:58:35.286Z,24.34
2019-04-22T15:01:08.950Z,24.53
2019-04-22T15:03:44.059Z,24.46
2019-04-22T15:06:18.046Z,25.27
2019-04-22T15:08:54.010Z,25.40
2019-04-22T15:11:26.791Z,25.65
2019-04-22T15:14:01.315Z,27.27
2019-04-22T15:16:53.050Z,27.31
2019-04-22T15:19:51.803Z,26.26
2019-04-22T15:22:26.303Z,26.96
2019-04-22T15:25:00.638Z,26.57
2019-04-22T15:27:33.664Z,26.33
2019-04-22T15:30:07.721Z,26.32
2019-04-22T15:32:41.258Z,27.00
2019-04-22T15:35:15.535Z,25.92
2019-04-22T15:37:51.221Z,25.68
2019-04-22T15:40:26.806Z,26.52
2019-04-22T15:42:59.157Z,25.79
2019-04-22T15:45:32.622Z,26.02
2019-04-22T15:48:06.242Z,27.42
2019-04-22T15:50:40.527Z,26.14
2019-04-22T15:53:13.877Z,26.93
2019-04-22T15:55:47.141Z,27.35
2019-04-22T15:58:21.610Z,26.64
2019-04-22T16:01:08.144Z,28.49
2019-04-22T16:03:28.988Z,27.73
2019-04-22T16:06:02.284Z,27.87
2019-04-22T16:08:38.761Z,28.82
2019-04-22T16:11:11.911Z,28.25
2019-04-22T16:13:46.534Z,28.97
2019-04-22T16:16:20.696Z,29.02
2019-04-22T16:18:54.224Z,30.74
2019-04-22T16:21:38.217Z,28.57
2019-04-22T16:24:15.957Z,28.59
2019-04-22T16:27:02.468Z,27.23
2019-04-22T16:29:37.114Z,28.09
2019-04-22T16:32:11.530Z,28.60
2019-04-22T16:34:45.832Z,27.14
2019-04-22T16:37:19.002Z,27.62
2019-04-22T16:39:52.440Z,29.74
2019-04-22T16:42:33.799Z,29.76
2019-04-22T16:44:59.969Z,29.20
2019-04-22T16:47:33.353Z,30.28
2019-04-22T16:50:08.101Z,29.18
2019-04-22T16:52:41.790Z,29.03
2019-04-22T16:55:15.005Z,29.80
2019-04-22T16:57:48.277Z,29.37
2019-04-22T17:00:22.614Z,30.45
2019-04-22T17:03:14.556Z,30.05
2019-04-22T17:06:05.413Z,30.36
2019-04-22T17:08:44.377Z,31.46
2019-04-22T17:11:20.190Z,30.46
2019-04-22T17:13:53.291Z,33.30
2019-04-22T17:16:28.483Z,31.84
2019-04-22T17:19:02.558Z,32.82
2019-04-22T17:21:35.592Z,35.32
2019-04-22T17:24:09.781Z,34.42
2019-04-22T17:26:44.218Z,34.45
2019-04-22T17:29:18.580Z,35.33
2019-04-22T17:31:59.489Z,37.09
2019-04-22T17:34:27.523Z,38.00
2019-04-22T17:37:04.126Z,36.25
2019-04-22T17:39:45.215Z,38.41
2019-04-22T17:42:29.267Z,38.60
2019-04-22T17:45:34.134Z,37.84
2019-04-22T17:48:27.661Z,38.82
2019-04-22T17:51:05.592Z,41.10
2019-04-22T17:53:33.517Z,41.32
2019-04-22T17:56:08.752Z,42.29
2019-04-22T17:58:42.234Z,42.08
2019-04-22T18:01:20.688Z,42.97
2019-04-22T18:03:40.748Z,44.06
2019-04-22T18:06:14.183Z,43.71
2019-04-22T18:09:01.797Z,41.86
2019-04-22T18:11:40.191Z,43.42
2019-04-22T18:14:30.070Z,42.68
2019-04-22T18:16:46.110Z,43.03
2019-04-22T18:19:19.359Z,45.43
2019-04-22T18:21:47.570Z,45.27
2019-04-22T18:24:18.258Z,45.18
2019-04-22T18:27:18.970Z,44.76
2019-04-22T18:29:41.736Z,45.75
2019-04-22T18:32:03.022Z,45.63
2019-04-22T18:34:39.922Z,45.60
2019-04-22T18:37:17.497Z,47.41
2019-04-22T18:39:56.844Z,47.72
2019-04-22T18:42:26.968Z,51.06
2019-04-22T18:45:26.049Z,50.28
2019-04-22T18:47:38.775Z,51.13
2019-04-22T18:50:21.910Z,52.91
2019-04-22T18:53:07.094Z,52.95
2019-04-22T18:55:51.609Z,52.69
2019-04-22T18:58:27.494Z,55.13
2019-04-22T19:00:48.312Z,55.58
2019-04-22T19:03:26.337Z,54.54
2019-04-22T19:06:32.271Z,55.30
2019-04-22T19:08:55.442Z,56.92
2019-04-22T19:11:37.205Z,57.03
2019-04-22T19:14:19.092Z,57.41
2019-04-22T19:16:59.241Z,55.76
2019-04-22T19:19:30.331Z,58.09
2019-04-22T19:21:47.701Z,56.45
2019-04-22T19:24:21.281Z,56.23
2019-04-22T19:26:59.080Z,58.88
2019-04-22T19:29:31.176Z,56.59
2019-04-22T19:32:01.900Z,59.10
2019-04-22T19:34:38.207Z,60.36
2019-04-22T19:37:13.230Z,58.60
2019-04-22T19:40:00.883Z,59.64
2019-04-22T19:42:30.990Z,59.34
2019-04-22T19:44:55.079Z,57.92
2019-04-22T19:47:38.725Z,57.80
2019-04-22T19:50:13.150Z,57.83
2019-04-22T19:52:39.932Z,59.97
2019-04-22T19:55:16.903Z,59.83
2019-04-22T19:57:50.716Z,60.33
2019-04-22T20:00:28.360Z,57.96
2019-04-22T20:03:36.364Z,59.44
2019-04-22T20:06:16.561Z,59.45
2019-04-22T20:08:48.866Z,58.09
2019-04-22T20:11:23.115Z,57.43
2019-04-22T20:14:02.989Z,60.41
2019-04-22T20:16:27.299Z,60.22
2019-04-22T20:19:12.006Z,62.24
2019-04-22T20:21:40.598Z,62.24
2019-04-22T20:24:04.389Z,62.28
2019-04-22T20:26:56.560Z,61.99
2019-04-22T20:29:35.274Z,61.50
2019-04-22T20:31:58.987Z,58.82
2019-04-22T20:34:42.230Z,58.95
2019-04-22T20:37:29.476Z,57.67
2019-04-22T20:39:46.887Z,59.40
2019-04-22T20:42:33.121Z,57.57
2019-04-22T20:45:01.942Z,56.96
2019-04-22T20:47:29.517Z,56.50
2019-04-22T20:50:05.332Z,59.16
2019-04-22T20:52:50.379Z,60.18
2019-04-22T20:55:10.705Z,59.75
2019-04-22T20:57:57.966Z,60.41
2019-04-22T21:00:20.049Z,58.47
2019-04-22T21:02:48.879Z,58.99
2019-04-22T21:05:24.964Z,58.92
2019-04-22T21:08:15.497Z,59.02
2019-04-22T21:10:33.443Z,59.61
2019-04-22T21:13:11.211Z,59.92
2019-04-22T21:15:57.543Z,61.87
2019-04-22T21:18:26.603Z,62.30
2019-04-22T21:21:04.045Z,63.79
2019-04-22T21:23:27.613Z,63.97
2019-04-22T21:26:08.353Z,64.50
2019-04-22T21:28:44.504Z,64.02
2019-04-22T21:31:24.845Z,64.57
2019-04-22T21:33:50.319Z,63.18
2019-04-22T21:38:57.585Z,62.87
2019-04-22T21:41:36.758Z,65.80
2019-04-22T21:44:10.393Z,65.95
2019-04-22T21:46:51.727Z,65.78
2019-04-22T21:49:24.959Z,67.94
2019-04-22T21:52:13.255Z,68.60
2019-04-22T21:54:34.250Z,67.18
2019-04-22T21:57:46.539Z,67.23
2019-04-22T21:59:57.950Z,66.83
2019-04-22T22:02:43.870Z,66.73
2019-04-22T22:05:04.503Z,64.03
2019-04-22T22:07:27.621Z,68.33
2019-04-22T22:10:16.863Z,69.58
2019-04-22T22:12:56.022Z,69.35
2019-04-22T22:15:30.352Z,70.36
2019-04-22T22:17:54.497Z,69.20
2019-04-22T22:20:46.290Z,68.42
2019-04-22T22:23:22.237Z,69.05
2019-04-22T22:25:43.646Z,67.52
2019-04-22T22:28:42.027Z,68.01
2019-04-22T22:31:02.029Z,70.69
2019-04-22T22:33:32.165Z,71.67
2019-04-22T22:36:03.586Z,69.89
2019-04-22T22:38:29.791Z,70.65
2019-04-22T22:40:53.991Z,71.03
2019-04-22T22:43:34.835Z,70.51
2019-04-22T22:46:11.157Z,70.55
2019-04-22T22:49:03.207Z,69.79
2019-04-22T22:51:43.020Z,70.76
2019-04-22T22:54:06.410Z,71.94
2019-04-22T22:56:47.514Z,70.98
2019-04-22T22:59:18.008Z,71.25
2019-04-22T23:01:50.920Z,70.66
2019-04-22T23:04:29.052Z,71.04
2019-04-22T23:07:00.341Z,71.84
2019-04-22T23:09:30.667Z,70.88
2019-04-22T23:14:44.232Z,71.86
2019-04-22T23:17:04.142Z,70.17
2019-04-22T23:19:32.601Z,71.33
2019-04-22T23:22:20.384Z,71.25
2019-04-22T23:25:07.714Z,71.04
2019-04-22T23:27:44.567Z,71.46
2019-04-22T23:30:23.930Z,71.59
2019-04-22T23:33:03.370Z,71.40
2019-04-22T23:35:46.972Z,71.40
2019-04-22T23:38:20.738Z,70.48
2019-04-22T23:41:03.730Z,70.62
2019-04-22T23:43:42.714Z,72.24
2019-04-22T23:46:16.957Z,71.85
2019-04-22T23:48:39.114Z,72.18
2019-04-22T23:51:19.333Z,70.74
2019-04-22T23:56:32.208Z,70.32
2019-04-22T23:59:10.292Z,70.05
